sensor_id;sensor_type;location;lat;lon;timestamp;P1;durP1;ratioP1;P2;durP2;ratioP2
17570;SDS011;8903;52.220;20.978;2023-09-12T00:00:23;20.63;;;18.43;;
17570;SDS011;8903;52.220;20.978;2023-09-12T00:02:51;21.93;;;19.23;;
17570;SDS011;8903;52.220;20.978;2023-09-12T00:05:18;27.83;;;18.87;;
17570;SDS011;8903;52.220;20.978;2023-09-12T00:07:45;19.40;;;17.40;;
17570;SDS011;8903;52.220;20.978;2023-09-12T00:10:13;21.60;;;18.87;;
17570;SDS011;8903;52.220;20.978;2023-09-12T00:12:39;24.20;;;20.63;;
17570;SDS011;8903;52.220;20.978;2023-09-12T00:15:07;21.77;;;19.60;;
17570;SDS011;8903;52.220;20.978;2023-09-12T00:17:34;19.47;;;16.30;;
17570;SDS011;8903;52.220;20.978;2023-09-12T00:20:03;20.57;;;18.67;;
17570;SDS011;8903;52.220;20.978;2023-09-12T00:22:31;22.97;;;19.77;;
17570;SDS011;8903;52.220;20.978;2023-09-12T00:24:58;20.53;;;18.47;;
17570;SDS011;8903;52.220;20.978;2023-09-12T00:27:25;21.77;;;19.53;;
17570;SDS011;8903;52.220;20.978;2023-09-12T00:29:52;23.83;;;18.43;;
17570;SDS011;8903;52.220;20.978;2023-09-12T00:32:19;25.27;;;19.77;;
17570;SDS011;8903;52.220;20.978;2023-09-12T00:34:46;21.73;;;18.37;;
17570;SDS011;8903;52.220;20.978;2023-09-12T00:37:14;21.60;;;18.20;;
17570;SDS011;8903;52.220;20.978;2023-09-12T00:39:41;20.93;;;18.90;;
17570;SDS011;8903;52.220;20.978;2023-09-12T00:42:08;20.27;;;18.33;;
17570;SDS011;8903;52.220;20.978;2023-09-12T00:44:35;21.67;;;19.20;;
17570;SDS011;8903;52.220;20.978;2023-09-12T00:47:02;19.67;;;17.73;;
17570;SDS011;8903;52.220;20.978;2023-09-12T00:49:30;21.30;;;19.20;;
17570;SDS011;8903;52.220;20.978;2023-09-12T00:51:58;21.93;;;17.63;;
17570;SDS011;8903;52.220;20.978;2023-09-12T00:54:28;22.07;;;19.20;;
17570;SDS011;8903;52.220;20.978;2023-09-12T00:56:55;22.67;;;19.13;;
17570;SDS011;8903;52.220;20.978;2023-09-12T00:59:23;23.10;;;18.90;;
17570;SDS011;8903;52.220;20.978;2023-09-12T01:01:50;21.37;;;18.63;;
17570;SDS011;8903;52.220;20.978;2023-09-12T01:04:17;22.30;;;20.00;;
17570;SDS011;8903;52.220;20.978;2023-09-12T01:06:46;24.10;;;17.83;;
17570;SDS011;8903;52.220;20.978;2023-09-12T01:09:13;19.80;;;17.90;;
17570;SDS011;8903;52.220;20.978;2023-09-12T01:11:42;22.57;;;20.17;;
17570;SDS011;8903;52.220;20.978;2023-09-12T01:14:09;21.87;;;19.67;;
17570;SDS011;8903;52.220;20.978;2023-09-12T01:16:36;20.47;;;18.30;;
17570;SDS011;8903;52.220;20.978;2023-09-12T01:19:03;21.53;;;19.17;;
17570;SDS011;8903;52.220;20.978;2023-09-12T01:21:36;20.87;;;18.63;;
17570;SDS011;8903;52.220;20.978;2023-09-12T01:27:35;22.00;;;18.90;;
17570;SDS011;8903;52.220;20.978;2023-09-12T01:30:05;21.97;;;19.73;;
17570;SDS011;8903;52.220;20.978;2023-09-12T01:32:35;24.93;;;20.87;;
17570;SDS011;8903;52.220;20.978;2023-09-12T01:35:04;21.30;;;19.10;;
17570;SDS011;8903;52.220;20.978;2023-09-12T01:37:31;23.67;;;21.00;;
17570;SDS011;8903;52.220;20.978;2023-09-12T01:39:58;24.67;;;22.10;;
17570;SDS011;8903;52.220;20.978;2023-09-12T01:42:27;26.57;;;21.70;;
17570;SDS011;8903;52.220;20.978;2023-09-12T01:45:03;23.47;;;20.90;;
17570;SDS011;8903;52.220;20.978;2023-09-12T01:47:31;25.13;;;21.20;;
17570;SDS011;8903;52.220;20.978;2023-09-12T01:50:01;23.90;;;19.93;;
17570;SDS011;8903;52.220;20.978;2023-09-12T01:52:29;22.47;;;19.53;;
17570;SDS011;8903;52.220;20.978;2023-09-12T01:54:57;21.33;;;19.13;;
17570;SDS011;8903;52.220;20.978;2023-09-12T01:57:25;22.47;;;20.17;;
17570;SDS011;8903;52.220;20.978;2023-09-12T01:59:52;22.80;;;20.60;;
17570;SDS011;8903;52.220;20.978;2023-09-12T02:02:21;22.40;;;20.20;;
17570;SDS011;8903;52.220;20.978;2023-09-12T02:04:51;23.27;;;20.90;;
17570;SDS011;8903;52.220;20.978;2023-09-12T02:07:24;22.60;;;20.20;;
17570;SDS011;8903;52.220;20.978;2023-09-12T02:09:56;25.70;;;20.67;;
17570;SDS011;8903;52.220;20.978;2023-09-12T02:12:23;24.37;;;19.20;;
17570;SDS011;8903;52.220;20.978;2023-09-12T02:14:50;21.73;;;18.77;;
17570;SDS011;8903;52.220;20.978;2023-09-12T02:17:17;24.43;;;21.80;;
17570;SDS011;8903;52.220;20.978;2023-09-12T02:19:48;28.73;;;19.60;;
17570;SDS011;8903;52.220;20.978;2023-09-12T02:22:15;22.23;;;19.93;;
17570;SDS011;8903;52.220;20.978;2023-09-12T02:24:42;21.87;;;19.60;;
17570;SDS011;8903;52.220;20.978;2023-09-12T02:27:09;24.87;;;20.40;;
17570;SDS011;8903;52.220;20.978;2023-09-12T02:29:36;29.80;;;20.17;;
17570;SDS011;8903;52.220;20.978;2023-09-12T02:32:04;24.70;;;20.60;;
17570;SDS011;8903;52.220;20.978;2023-09-12T02:34:32;25.23;;;20.93;;
17570;SDS011;8903;52.220;20.978;2023-09-12T02:37:00;26.83;;;18.47;;
17570;SDS011;8903;52.220;20.978;2023-09-12T02:39:28;23.50;;;20.37;;
17570;SDS011;8903;52.220;20.978;2023-09-12T02:41:55;22.20;;;19.90;;
17570;SDS011;8903;52.220;20.978;2023-09-12T02:44:22;25.67;;;21.27;;
17570;SDS011;8903;52.220;20.978;2023-09-12T02:46:50;24.23;;;21.63;;
17570;SDS011;8903;52.220;20.978;2023-09-12T02:49:17;22.70;;;20.30;;
17570;SDS011;8903;52.220;20.978;2023-09-12T02:51:44;24.30;;;20.83;;
17570;SDS011;8903;52.220;20.978;2023-09-12T02:54:13;25.40;;;21.47;;
17570;SDS011;8903;52.220;20.978;2023-09-12T02:56:40;27.20;;;20.93;;
17570;SDS011;8903;52.220;20.978;2023-09-12T02:59:07;27.00;;;21.03;;
17570;SDS011;8903;52.220;20.978;2023-09-12T03:01:34;24.40;;;20.33;;
17570;SDS011;8903;52.220;20.978;2023-09-12T03:04:01;30.70;;;27.13;;
17570;SDS011;8903;52.220;20.978;2023-09-12T03:06:29;26.63;;;22.47;;
17570;SDS011;8903;52.220;20.978;2023-09-12T03:08:56;29.00;;;24.50;;
17570;SDS011;8903;52.220;20.978;2023-09-12T03:11:25;32.30;;;25.73;;
17570;SDS011;8903;52.220;20.978;2023-09-12T03:13:53;43.40;;;30.90;;
17570;SDS011;8903;52.220;20.978;2023-09-12T03:16:20;43.50;;;32.50;;
17570;SDS011;8903;52.220;20.978;2023-09-12T03:18:49;36.57;;;29.53;;
17570;SDS011;8903;52.220;20.978;2023-09-12T03:21:16;27.80;;;24.13;;
17570;SDS011;8903;52.220;20.978;2023-09-12T03:23:43;28.83;;;22.77;;
17570;SDS011;8903;52.220;20.978;2023-09-12T03:26:11;34.43;;;26.60;;
17570;SDS011;8903;52.220;20.978;2023-09-12T03:28:41;28.43;;;22.27;;
17570;SDS011;8903;52.220;20.978;2023-09-12T03:31:08;27.43;;;23.10;;
17570;SDS011;8903;52.220;20.978;2023-09-12T03:33:37;25.33;;;21.43;;
17570;SDS011;8903;52.220;20.978;2023-09-12T03:36:04;23.87;;;21.37;;
17570;SDS011;8903;52.220;20.978;2023-09-12T03:38:32;23.20;;;20.70;;
17570;SDS011;8903;52.220;20.978;2023-09-12T03:40:59;24.27;;;20.70;;
17570;SDS011;8903;52.220;20.978;2023-09-12T03:43:26;22.70;;;20.40;;
17570;SDS011;8903;52.220;20.978;2023-09-12T03:45:56;23.53;;;20.87;;
17570;SDS011;8903;52.220;20.978;2023-09-12T03:48:23;23.03;;;20.60;;
17570;SDS011;8903;52.220;20.978;2023-09-12T03:50:50;23.10;;;20.63;;
17570;SDS011;8903;52.220;20.978;2023-09-12T03:53:17;26.53;;;20.70;;
17570;SDS011;8903;52.220;20.978;2023-09-12T03:55:44;23.43;;;19.83;;
17570;SDS011;8903;52.220;20.978;2023-09-12T03:58:11;22.63;;;20.30;;
17570;SDS011;8903;52.220;20.978;2023-09-12T04:00:43;24.10;;;20.50;;
17570;SDS011;8903;52.220;20.978;2023-09-12T04:03:11;27.10;;;22.90;;
17570;SDS011;8903;52.220;20.978;2023-09-12T04:05:38;22.47;;;20.07;;
17570;SDS011;8903;52.220;20.978;2023-09-12T04:08:05;25.33;;;22.67;;
17570;SDS011;8903;52.220;20.978;2023-09-12T04:10:32;24.63;;;21.23;;
17570;SDS011;8903;52.220;20.978;2023-09-12T04:12:59;26.10;;;22.57;;
17570;SDS011;8903;52.220;20.978;2023-09-12T04:15:26;27.40;;;24.60;;
17570;SDS011;8903;52.220;20.978;2023-09-12T04:17:53;25.77;;;23.07;;
17570;SDS011;8903;52.220;20.978;2023-09-12T04:20:22;39.53;;;25.27;;
17570;SDS011;8903;52.220;20.978;2023-09-12T04:22:49;33.53;;;24.80;;
17570;SDS011;8903;52.220;20.978;2023-09-12T04:25:16;29.83;;;24.30;;
17570;SDS011;8903;52.220;20.978;2023-09-12T04:27:45;31.27;;;24.60;;
17570;SDS011;8903;52.220;20.978;2023-09-12T04:30:12;32.53;;;25.77;;
17570;SDS011;8903;52.220;20.978;2023-09-12T04:32:39;32.67;;;25.33;;
17570;SDS011;8903;52.220;20.978;2023-09-12T04:35:07;31.30;;;25.83;;
17570;SDS011;8903;52.220;20.978;2023-09-12T04:37:35;38.63;;;25.53;;
17570;SDS011;8903;52.220;20.978;2023-09-12T04:40:03;30.23;;;26.00;;
17570;SDS011;8903;52.220;20.978;2023-09-12T04:42:31;27.87;;;25.00;;
17570;SDS011;8903;52.220;20.978;2023-09-12T04:44:59;28.33;;;25.20;;
17570;SDS011;8903;52.220;20.978;2023-09-12T04:47:26;31.60;;;27.60;;
17570;SDS011;8903;52.220;20.978;2023-09-12T04:49:52;32.53;;;26.30;;
17570;SDS011;8903;52.220;20.978;2023-09-12T04:52:19;29.90;;;26.07;;
17570;SDS011;8903;52.220;20.978;2023-09-12T04:54:48;28.37;;;25.27;;
17570;SDS011;8903;52.220;20.978;2023-09-12T04:57:15;26.90;;;24.00;;
17570;SDS011;8903;52.220;20.978;2023-09-12T04:59:42;29.37;;;25.17;;
17570;SDS011;8903;52.220;20.978;2023-09-12T05:02:09;30.17;;;25.27;;
17570;SDS011;8903;52.220;20.978;2023-09-12T05:04:36;28.03;;;25.03;;
17570;SDS011;8903;52.220;20.978;2023-09-12T05:07:03;30.03;;;25.50;;
17570;SDS011;8903;52.220;20.978;2023-09-12T05:09:30;29.53;;;25.23;;
17570;SDS011;8903;52.220;20.978;2023-09-12T05:11:58;26.50;;;23.57;;
17570;SDS011;8903;52.220;20.978;2023-09-12T05:14:25;35.50;;;27.00;;
17570;SDS011;8903;52.220;20.978;2023-09-12T05:16:52;27.80;;;24.90;;
17570;SDS011;8903;52.220;20.978;2023-09-12T05:19:19;29.33;;;26.30;;
17570;SDS011;8903;52.220;20.978;2023-09-12T05:21:46;30.57;;;27.37;;
17570;SDS011;8903;52.220;20.978;2023-09-12T05:24:13;36.90;;;26.80;;
17570;SDS011;8903;52.220;20.978;2023-09-12T05:26:40;34.73;;;24.93;;
17570;SDS011;8903;52.220;20.978;2023-09-12T05:29:08;29.67;;;26.43;;
17570;SDS011;8903;52.220;20.978;2023-09-12T05:31:35;33.13;;;25.57;;
17570;SDS011;8903;52.220;20.978;2023-09-12T05:34:03;29.60;;;26.47;;
17570;SDS011;8903;52.220;20.978;2023-09-12T05:36:30;27.67;;;24.77;;
17570;SDS011;8903;52.220;20.978;2023-09-12T05:38:56;30.47;;;26.57;;
17570;SDS011;8903;52.220;20.978;2023-09-12T05:41:23;30.10;;;26.87;;
17570;SDS011;8903;52.220;20.978;2023-09-12T05:43:50;29.30;;;25.30;;
17570;SDS011;8903;52.220;20.978;2023-09-12T05:46:18;28.53;;;25.50;;
17570;SDS011;8903;52.220;20.978;2023-09-12T05:48:45;27.13;;;24.50;;
17570;SDS011;8903;52.220;20.978;2023-09-12T05:51:12;30.67;;;25.00;;
17570;SDS011;8903;52.220;20.978;2023-09-12T05:53:39;29.50;;;24.53;;
17570;SDS011;8903;52.220;20.978;2023-09-12T05:56:06;28.00;;;22.63;;
17570;SDS011;8903;52.220;20.978;2023-09-12T05:58:33;28.90;;;23.97;;
17570;SDS011;8903;52.220;20.978;2023-09-12T06:01:01;25.67;;;23.10;;
17570;SDS011;8903;52.220;20.978;2023-09-12T06:03:29;29.17;;;24.30;;
17570;SDS011;8903;52.220;20.978;2023-09-12T06:05:56;23.67;;;21.37;;
17570;SDS011;8903;52.220;20.978;2023-09-12T06:08:23;25.23;;;22.80;;
17570;SDS011;8903;52.220;20.978;2023-09-12T06:10:50;23.73;;;21.20;;
17570;SDS011;8903;52.220;20.978;2023-09-12T06:13:18;26.77;;;22.27;;
17570;SDS011;8903;52.220;20.978;2023-09-12T06:15:45;23.67;;;21.27;;
17570;SDS011;8903;52.220;20.978;2023-09-12T06:18:12;24.60;;;22.00;;
17570;SDS011;8903;52.220;20.978;2023-09-12T06:20:41;27.70;;;22.10;;
17570;SDS011;8903;52.220;20.978;2023-09-12T06:23:08;30.63;;;22.37;;
17570;SDS011;8903;52.220;20.978;2023-09-12T06:25:35;26.30;;;23.50;;
17570;SDS011;8903;52.220;20.978;2023-09-12T06:28:02;27.47;;;21.90;;
17570;SDS011;8903;52.220;20.978;2023-09-12T06:30:30;26.60;;;23.20;;
17570;SDS011;8903;52.220;20.978;2023-09-12T06:32:57;24.83;;;22.17;;
17570;SDS011;8903;52.220;20.978;2023-09-12T06:35:24;28.23;;;21.97;;
17570;SDS011;8903;52.220;20.978;2023-09-12T06:37:52;25.00;;;21.80;;
17570;SDS011;8903;52.220;20.978;2023-09-12T06:40:21;23.70;;;20.80;;
17570;SDS011;8903;52.220;20.978;2023-09-12T06:42:48;25.60;;;22.90;;
17570;SDS011;8903;52.220;20.978;2023-09-12T06:45:15;24.10;;;21.63;;
17570;SDS011;8903;52.220;20.978;2023-09-12T06:47:42;23.17;;;19.43;;
17570;SDS011;8903;52.220;20.978;2023-09-12T06:50:09;26.67;;;20.50;;
17570;SDS011;8903;52.220;20.978;2023-09-12T06:52:36;22.60;;;20.20;;
17570;SDS011;8903;52.220;20.978;2023-09-12T06:55:05;24.00;;;20.97;;
17570;SDS011;8903;52.220;20.978;2023-09-12T06:57:32;21.93;;;19.73;;
17570;SDS011;8903;52.220;20.978;2023-09-12T06:59:59;21.00;;;19.00;;
17570;SDS011;8903;52.220;20.978;2023-09-12T07:02:26;24.50;;;20.73;;
17570;SDS011;8903;52.220;20.978;2023-09-12T07:04:54;22.93;;;20.57;;
17570;SDS011;8903;52.220;20.978;2023-09-12T07:07:22;24.87;;;20.03;;
17570;SDS011;8903;52.220;20.978;2023-09-12T07:09:49;22.17;;;19.77;;
17570;SDS011;8903;52.220;20.978;2023-09-12T07:12:18;22.57;;;20.27;;
17570;SDS011;8903;52.220;20.978;2023-09-12T07:14:45;22.63;;;20.23;;
17570;SDS011;8903;52.220;20.978;2023-09-12T07:17:12;27.10;;;21.27;;
17570;SDS011;8903;52.220;20.978;2023-09-12T07:19:39;23.37;;;20.87;;
17570;SDS011;8903;52.220;20.978;2023-09-12T07:22:06;24.00;;;19.60;;
17570;SDS011;8903;52.220;20.978;2023-09-12T07:24:33;22.97;;;20.50;;
17570;SDS011;8903;52.220;20.978;2023-09-12T07:27:00;22.10;;;19.80;;
17570;SDS011;8903;52.220;20.978;2023-09-12T07:29:29;21.73;;;19.70;;
17570;SDS011;8903;52.220;20.978;2023-09-12T07:31:56;23.03;;;19.60;;
17570;SDS011;8903;52.220;20.978;2023-09-12T07:34:23;20.77;;;18.67;;
17570;SDS011;8903;52.220;20.978;2023-09-12T07:36:51;24.83;;;21.07;;
17570;SDS011;8903;52.220;20.978;2023-09-12T07:39:19;25.87;;;19.50;;
17570;SDS011;8903;52.220;20.978;2023-09-12T07:41:46;21.10;;;18.13;;
17570;SDS011;8903;52.220;20.978;2023-09-12T07:44:13;20.90;;;18.87;;
17570;SDS011;8903;52.220;20.978;2023-09-12T07:46:42;22.60;;;20.50;;
17570;SDS011;8903;52.220;20.978;2023-09-12T07:49:10;29.90;;;23.17;;
17570;SDS011;8903;52.220;20.978;2023-09-12T07:51:37;23.27;;;18.57;;
17570;SDS011;8903;52.220;20.978;2023-09-12T07:54:04;20.63;;;17.97;;
17570;SDS011;8903;52.220;20.978;2023-09-12T07:56:31;18.30;;;16.60;;
17570;SDS011;8903;52.220;20.978;2023-09-12T07:58:59;21.73;;;18.93;;
17570;SDS011;8903;52.220;20.978;2023-09-12T08:01:26;21.57;;;19.50;;
17570;SDS011;8903;52.220;20.978;2023-09-12T08:03:54;21.53;;;19.03;;
17570;SDS011;8903;52.220;20.978;2023-09-12T08:06:22;26.77;;;21.80;;
17570;SDS011;8903;52.220;20.978;2023-09-12T08:08:50;32.93;;;20.37;;
17570;SDS011;8903;52.220;20.978;2023-09-12T08:11:17;21.70;;;19.23;;
17570;SDS011;8903;52.220;20.978;2023-09-12T08:13:47;19.23;;;17.33;;
17570;SDS011;8903;52.220;20.978;2023-09-12T08:16:15;23.17;;;18.90;;
17570;SDS011;8903;52.220;20.978;2023-09-12T08:18:43;21.00;;;17.20;;
17570;SDS011;8903;52.220;20.978;2023-09-12T08:21:11;19.53;;;17.50;;
17570;SDS011;8903;52.220;20.978;2023-09-12T08:23:38;19.90;;;15.50;;
17570;SDS011;8903;52.220;20.978;2023-09-12T08:26:05;21.07;;;15.90;;
17570;SDS011;8903;52.220;20.978;2023-09-12T08:28:34;18.73;;;15.83;;
17570;SDS011;8903;52.220;20.978;2023-09-12T08:31:01;22.10;;;17.40;;
17570;SDS011;8903;52.220;20.978;2023-09-12T08:33:29;24.37;;;17.60;;
17570;SDS011;8903;52.220;20.978;2023-09-12T08:35:56;18.03;;;16.20;;
17570;SDS011;8903;52.220;20.978;2023-09-12T08:38:24;17.00;;;15.30;;
17570;SDS011;8903;52.220;20.978;2023-09-12T08:40:51;25.20;;;15.53;;
17570;SDS011;8903;52.220;20.978;2023-09-12T08:43:19;13.87;;;12.60;;
17570;SDS011;8903;52.220;20.978;2023-09-12T08:45:46;15.03;;;13.43;;
17570;SDS011;8903;52.220;20.978;2023-09-12T08:48:14;16.70;;;12.50;;
17570;SDS011;8903;52.220;20.978;2023-09-12T08:50:42;14.27;;;12.90;;
17570;SDS011;8903;52.220;20.978;2023-09-12T08:53:10;15.87;;;13.53;;
17570;SDS011;8903;52.220;20.978;2023-09-12T08:55:38;15.57;;;14.03;;
17570;SDS011;8903;52.220;20.978;2023-09-12T08:58:06;17.03;;;12.93;;
17570;SDS011;8903;52.220;20.978;2023-09-12T09:00:33;16.33;;;13.17;;
17570;SDS011;8903;52.220;20.978;2023-09-12T09:03:01;15.90;;;13.20;;
17570;SDS011;8903;52.220;20.978;2023-09-12T09:05:29;15.80;;;14.10;;
17570;SDS011;8903;52.220;20.978;2023-09-12T09:07:57;16.80;;;13.50;;
17570;SDS011;8903;52.220;20.978;2023-09-12T09:10:25;13.53;;;11.87;;
17570;SDS011;8903;52.220;20.978;2023-09-12T09:12:58;13.40;;;11.90;;
17570;SDS011;8903;52.220;20.978;2023-09-12T09:15:26;15.80;;;12.57;;
17570;SDS011;8903;52.220;20.978;2023-09-12T09:17:55;13.60;;;12.33;;
17570;SDS011;8903;52.220;20.978;2023-09-12T09:20:26;12.27;;;11.07;;
17570;SDS011;8903;52.220;20.978;2023-09-12T09:22:56;11.97;;;10.87;;
17570;SDS011;8903;52.220;20.978;2023-09-12T09:25:25;12.30;;;11.10;;
17570;SDS011;8903;52.220;20.978;2023-09-12T09:27:53;14.73;;;11.30;;
17570;SDS011;8903;52.220;20.978;2023-09-12T09:30:29;14.33;;;10.90;;
17570;SDS011;8903;52.220;20.978;2023-09-12T09:33:06;12.20;;;11.00;;
17570;SDS011;8903;52.220;20.978;2023-09-12T09:35:34;18.40;;;13.13;;
17570;SDS011;8903;52.220;20.978;2023-09-12T09:38:02;12.30;;;11.10;;
17570;SDS011;8903;52.220;20.978;2023-09-12T09:40:31;12.33;;;11.20;;
17570;SDS011;8903;52.220;20.978;2023-09-12T09:42:59;13.63;;;10.80;;
17570;SDS011;8903;52.220;20.978;2023-09-12T09:45:28;15.10;;;11.80;;
17570;SDS011;8903;52.220;20.978;2023-09-12T09:47:56;13.03;;;10.93;;
17570;SDS011;8903;52.220;20.978;2023-09-12T09:50:25;12.27;;;11.03;;
17570;SDS011;8903;52.220;20.978;2023-09-12T09:52:53;12.27;;;10.97;;
17570;SDS011;8903;52.220;20.978;2023-09-12T09:55:23;18.90;;;11.60;;
17570;SDS011;8903;52.220;20.978;2023-09-12T09:57:51;14.80;;;11.30;;
17570;SDS011;8903;52.220;20.978;2023-09-12T10:00:19;12.17;;;11.07;;
17570;SDS011;8903;52.220;20.978;2023-09-12T10:02:50;21.10;;;11.73;;
17570;SDS011;8903;52.220;20.978;2023-09-12T10:05:18;12.30;;;10.87;;
17570;SDS011;8903;52.220;20.978;2023-09-12T10:07:50;12.03;;;10.93;;
17570;SDS011;8903;52.220;20.978;2023-09-12T10:10:19;11.53;;;10.50;;
17570;SDS011;8903;52.220;20.978;2023-09-12T10:12:49;14.33;;;11.00;;
17570;SDS011;8903;52.220;20.978;2023-09-12T10:15:20;11.87;;;10.77;;
17570;SDS011;8903;52.220;20.978;2023-09-12T10:18:02;12.63;;;11.47;;
17570;SDS011;8903;52.220;20.978;2023-09-12T10:20:37;12.33;;;11.23;;
17570;SDS011;8903;52.220;20.978;2023-09-12T10:23:11;11.50;;;10.50;;
17570;SDS011;8903;52.220;20.978;2023-09-12T10:25:45;12.27;;;11.17;;
17570;SDS011;8903;52.220;20.978;2023-09-12T10:28:15;12.17;;;11.07;;
17570;SDS011;8903;52.220;20.978;2023-09-12T10:30:44;12.47;;;11.37;;
17570;SDS011;8903;52.220;20.978;2023-09-12T10:33:14;12.93;;;11.80;;
17570;SDS011;8903;52.220;20.978;2023-09-12T10:35:42;11.67;;;10.50;;
17570;SDS011;8903;52.220;20.978;2023-09-12T10:38:11;17.67;;;12.53;;
17570;SDS011;8903;52.220;20.978;2023-09-12T10:40:42;12.40;;;11.30;;
17570;SDS011;8903;52.220;20.978;2023-09-12T10:43:12;11.23;;;10.33;;
17570;SDS011;8903;52.220;20.978;2023-09-12T10:45:40;12.57;;;11.00;;
17570;SDS011;8903;52.220;20.978;2023-09-12T10:48:09;11.63;;;10.57;;
17570;SDS011;8903;52.220;20.978;2023-09-12T10:50:38;12.93;;;11.60;;
17570;SDS011;8903;52.220;20.978;2023-09-12T10:53:10;12.53;;;11.43;;
17570;SDS011;8903;52.220;20.978;2023-09-12T10:55:38;14.00;;;12.60;;
17570;SDS011;8903;52.220;20.978;2023-09-12T10:58:06;11.50;;;10.30;;
17570;SDS011;8903;52.220;20.978;2023-09-12T11:00:35;12.80;;;11.37;;
17570;SDS011;8903;52.220;20.978;2023-09-12T11:06:04;12.70;;;11.40;;
17570;SDS011;8903;52.220;20.978;2023-09-12T11:08:45;11.97;;;10.97;;
17570;SDS011;8903;52.220;20.978;2023-09-12T11:11:47;12.90;;;11.70;;
17570;SDS011;8903;52.220;20.978;2023-09-12T11:14:15;12.73;;;11.63;;
17570;SDS011;8903;52.220;20.978;2023-09-12T11:16:42;25.70;;;12.30;;
17570;SDS011;8903;52.220;20.978;2023-09-12T11:19:13;13.67;;;10.83;;
17570;SDS011;8903;52.220;20.978;2023-09-12T11:21:46;12.80;;;11.67;;
17570;SDS011;8903;52.220;20.978;2023-09-12T11:24:14;13.63;;;12.27;;
17570;SDS011;8903;52.220;20.978;2023-09-12T11:26:55;12.43;;;11.23;;
17570;SDS011;8903;52.220;20.978;2023-09-12T11:29:26;12.07;;;10.87;;
17570;SDS011;8903;52.220;20.978;2023-09-12T11:31:56;11.23;;;10.33;;
17570;SDS011;8903;52.220;20.978;2023-09-12T11:34:27;58.17;;;15.10;;
17570;SDS011;8903;52.220;20.978;2023-09-12T11:36:57;13.30;;;12.00;;
17570;SDS011;8903;52.220;20.978;2023-09-12T11:39:26;11.73;;;10.73;;
17570;SDS011;8903;52.220;20.978;2023-09-12T11:41:58;12.33;;;11.30;;
17570;SDS011;8903;52.220;20.978;2023-09-12T11:44:27;12.20;;;11.10;;
17570;SDS011;8903;52.220;20.978;2023-09-12T11:46:56;13.40;;;12.30;;
17570;SDS011;8903;52.220;20.978;2023-09-12T11:49:35;12.53;;;11.40;;
17570;SDS011;8903;52.220;20.978;2023-09-12T11:52:07;12.53;;;11.30;;
17570;SDS011;8903;52.220;20.978;2023-09-12T11:54:35;12.07;;;11.10;;
17570;SDS011;8903;52.220;20.978;2023-09-12T11:57:03;107.93;;;23.57;;
17570;SDS011;8903;52.220;20.978;2023-09-12T11:59:30;102.53;;;22.63;;
17570;SDS011;8903;52.220;20.978;2023-09-12T12:01:58;16.60;;;12.63;;
17570;SDS011;8903;52.220;20.978;2023-09-12T12:04:25;13.80;;;11.93;;
17570;SDS011;8903;52.220;20.978;2023-09-12T12:06:52;12.03;;;11.03;;
17570;SDS011;8903;52.220;20.978;2023-09-12T12:09:21;11.83;;;10.80;;
17570;SDS011;8903;52.220;20.978;2023-09-12T12:11:48;13.17;;;11.77;;
17570;SDS011;8903;52.220;20.978;2023-09-12T12:14:18;12.97;;;11.77;;
17570;SDS011;8903;52.220;20.978;2023-09-12T12:16:47;14.40;;;11.60;;
17570;SDS011;8903;52.220;20.978;2023-09-12T12:19:15;13.70;;;12.50;;
17570;SDS011;8903;52.220;20.978;2023-09-12T12:21:42;15.70;;;12.60;;
17570;SDS011;8903;52.220;20.978;2023-09-12T12:24:10;13.20;;;12.10;;
17570;SDS011;8903;52.220;20.978;2023-09-12T12:26:41;12.80;;;11.70;;
17570;SDS011;8903;52.220;20.978;2023-09-12T12:29:09;12.90;;;11.80;;
17570;SDS011;8903;52.220;20.978;2023-09-12T12:31:38;12.03;;;11.03;;
17570;SDS011;8903;52.220;20.978;2023-09-12T12:34:06;14.50;;;12.53;;
17570;SDS011;8903;52.220;20.978;2023-09-12T12:36:33;13.57;;;12.47;;
17570;SDS011;8903;52.220;20.978;2023-09-12T12:39:09;14.00;;;12.80;;
17570;SDS011;8903;52.220;20.978;2023-09-12T12:41:37;13.30;;;12.00;;
17570;SDS011;8903;52.220;20.978;2023-09-12T12:44:05;16.60;;;12.07;;
17570;SDS011;8903;52.220;20.978;2023-09-12T12:46:32;14.27;;;12.93;;
17570;SDS011;8903;52.220;20.978;2023-09-12T12:48:59;13.73;;;12.40;;
17570;SDS011;8903;52.220;20.978;2023-09-12T12:51:27;12.30;;;11.20;;
17570;SDS011;8903;52.220;20.978;2023-09-12T12:54:03;13.00;;;11.20;;
17570;SDS011;8903;52.220;20.978;2023-09-12T12:56:31;16.00;;;12.20;;
17570;SDS011;8903;52.220;20.978;2023-09-12T12:58:58;13.77;;;12.37;;
17570;SDS011;8903;52.220;20.978;2023-09-12T13:01:29;13.20;;;12.07;;
17570;SDS011;8903;52.220;20.978;2023-09-12T13:03:56;15.27;;;11.97;;
17570;SDS011;8903;52.220;20.978;2023-09-12T13:06:23;14.60;;;11.83;;
17570;SDS011;8903;52.220;20.978;2023-09-12T13:08:53;14.33;;;12.90;;
17570;SDS011;8903;52.220;20.978;2023-09-12T13:11:22;12.80;;;11.70;;
17570;SDS011;8903;52.220;20.978;2023-09-12T13:13:49;14.27;;;12.87;;
17570;SDS011;8903;52.220;20.978;2023-09-12T13:16:16;12.97;;;11.83;;
17570;SDS011;8903;52.220;20.978;2023-09-12T13:18:44;16.67;;;12.30;;
17570;SDS011;8903;52.220;20.978;2023-09-12T13:21:11;14.07;;;12.67;;
17570;SDS011;8903;52.220;20.978;2023-09-12T13:23:38;14.40;;;12.80;;
17570;SDS011;8903;52.220;20.978;2023-09-12T13:26:06;12.63;;;10.87;;
17570;SDS011;8903;52.220;20.978;2023-09-12T13:28:34;12.57;;;11.27;;
17570;SDS011;8903;52.220;20.978;2023-09-12T13:31:02;14.27;;;12.23;;
17570;SDS011;8903;52.220;20.978;2023-09-12T13:33:29;13.17;;;12.07;;
17570;SDS011;8903;52.220;20.978;2023-09-12T13:35:58;12.87;;;11.80;;
17570;SDS011;8903;52.220;20.978;2023-09-12T13:38:25;14.97;;;13.00;;
17570;SDS011;8903;52.220;20.978;2023-09-12T13:40:52;13.97;;;12.53;;
17570;SDS011;8903;52.220;20.978;2023-09-12T13:43:19;13.00;;;11.70;;
17570;SDS011;8903;52.220;20.978;2023-09-12T13:45:46;16.80;;;11.87;;
17570;SDS011;8903;52.220;20.978;2023-09-12T13:48:13;12.27;;;11.27;;
17570;SDS011;8903;52.220;20.978;2023-09-12T13:50:40;13.20;;;11.90;;
17570;SDS011;8903;52.220;20.978;2023-09-12T13:53:09;12.60;;;11.30;;
17570;SDS011;8903;52.220;20.978;2023-09-12T13:55:36;13.53;;;12.33;;
17570;SDS011;8903;52.220;20.978;2023-09-12T13:58:04;13.90;;;12.80;;
17570;SDS011;8903;52.220;20.978;2023-09-12T14:00:31;12.37;;;11.27;;
17570;SDS011;8903;52.220;20.978;2023-09-12T14:02:59;12.77;;;11.20;;
17570;SDS011;8903;52.220;20.978;2023-09-12T14:05:26;14.63;;;13.10;;
17570;SDS011;8903;52.220;20.978;2023-09-12T14:07:53;13.93;;;11.50;;
17570;SDS011;8903;52.220;20.978;2023-09-12T14:10:21;14.37;;;12.50;;
17570;SDS011;8903;52.220;20.978;2023-09-12T14:12:48;12.67;;;11.47;;
17570;SDS011;8903;52.220;20.978;2023-09-12T14:15:15;30.57;;;15.40;;
17570;SDS011;8903;52.220;20.978;2023-09-12T14:17:42;16.77;;;15.17;;
17570;SDS011;8903;52.220;20.978;2023-09-12T14:20:09;33.93;;;15.70;;
17570;SDS011;8903;52.220;20.978;2023-09-12T14:22:40;20.10;;;13.63;;
17570;SDS011;8903;52.220;20.978;2023-09-12T14:25:08;16.97;;;14.20;;
17570;SDS011;8903;52.220;20.978;2023-09-12T14:27:41;24.60;;;19.23;;
17570;SDS011;8903;52.220;20.978;2023-09-12T14:30:10;24.47;;;17.00;;
17570;SDS011;8903;52.220;20.978;2023-09-12T14:32:38;33.27;;;23.40;;